createdAt,value
2019-04-25T00:01:19.276Z,55.00
2019-04-25T00:04:26.659Z,54.66
2019-04-25T00:07:33.761Z,53.12
2019-04-25T00:10:42.685Z,53.76
2019-04-25T00:13:49.256Z,54.72
2019-04-25T00:16:56.346Z,54.67
2019-04-25T00:20:02.591Z,54.51
2019-04-25T00:23:08.543Z,55.14
2019-04-25T00:26:16.844Z,56.38
2019-04-25T00:29:23.706Z,56.91
2019-04-25T00:32:31.599Z,55.90
2019-04-25T00:35:39.255Z,56.67
2019-04-25T00:38:47.649Z,58.12
2019-04-25T00:41:54.920Z,57.47
2019-04-25T00:45:02.365Z,59.89
2019-04-25T00:48:09.514Z,59.85
2019-04-25T00:51:16.361Z,59.85
2019-04-25T00:54:23.265Z,60.86
2019-04-25T00:57:32.028Z,61.05
2019-04-25T01:00:41.580Z,60.15
2019-04-25T01:03:49.319Z,59.92
2019-04-25T01:06:56.385Z,61.93
2019-04-25T01:10:02.694Z,61.01
2019-04-25T01:13:11.266Z,62.68
2019-04-25T01:16:18.284Z,63.14
2019-04-25T01:19:25.336Z,63.85
2019-04-25T01:22:32.263Z,63.53
2019-04-25T01:25:42.465Z,65.27
2019-04-25T01:28:46.558Z,64.42
2019-04-25T01:31:54.186Z,65.75
2019-04-25T01:35:13.873Z,66.19
2019-04-25T01:38:28.511Z,66.38
2019-04-25T01:41:55.335Z,65.39
2019-04-25T01:45:04.083Z,65.39
2019-04-25T01:48:11.261Z,65.37
2019-04-25T01:51:18.246Z,65.40
2019-04-25T01:54:25.251Z,65.37
2019-04-25T01:57:33.729Z,65.71
2019-04-25T02:00:45.371Z,65.85
2019-04-25T02:03:53.514Z,66.27
2019-04-25T02:07:00.490Z,67.59
2019-04-25T02:10:09.683Z,67.29
2019-04-25T02:13:21.106Z,67.68
2019-04-25T02:16:28.282Z,67.73
2019-04-25T02:19:35.830Z,67.84
2019-04-25T02:22:44.191Z,67.13
2019-04-25T02:26:05.935Z,69.06
2019-04-25T02:29:01.076Z,69.06
2019-04-25T02:32:10.034Z,67.99
2019-04-25T02:35:17.413Z,67.72
2019-04-25T02:38:24.925Z,68.22
2019-04-25T02:41:31.925Z,68.22
2019-04-25T02:44:40.625Z,70.96
2019-04-25T02:48:06.913Z,69.64
2019-04-25T02:51:24.144Z,69.64
2019-04-25T02:54:30.316Z,70.21
2019-04-25T02:57:37.272Z,70.92
2019-04-25T03:00:55.070Z,71.82
2019-04-25T03:03:54.590Z,71.71
2019-04-25T03:07:05.206Z,72.90
2019-04-25T03:10:14.660Z,72.24
2019-04-25T03:13:20.868Z,72.24
2019-04-25T03:16:27.900Z,73.95
2019-04-25T03:19:54.262Z,74.02
2019-04-25T03:23:06.010Z,73.87
2019-04-25T03:26:11.476Z,73.77
2019-04-25T03:29:17.579Z,73.77
2019-04-25T03:32:27.942Z,74.30
2019-04-25T03:35:33.219Z,73.51
2019-04-25T03:38:39.608Z,73.86
2019-04-25T03:41:46.579Z,73.35
2019-04-25T03:44:53.884Z,73.01
2019-04-25T03:48:01.936Z,73.01
2019-04-25T03:51:08.932Z,72.79
2019-04-25T03:54:15.716Z,72.95
2019-04-25T03:57:23.275Z,75.56
2019-04-25T04:00:30.492Z,74.86
2019-04-25T04:03:37.703Z,73.38
2019-04-25T04:06:44.744Z,73.38
2019-04-25T04:09:53.294Z,73.77
2019-04-25T04:13:00.304Z,74.13
2019-04-25T04:16:07.324Z,74.30
2019-04-25T04:19:15.831Z,73.49
2019-04-25T04:22:34.141Z,73.12
2019-04-25T04:25:41.505Z,74.44
2019-04-25T04:28:47.637Z,74.55
2019-04-25T04:31:54.526Z,74.98
2019-04-25T04:35:01.330Z,73.42
2019-04-25T04:38:08.292Z,75.03
2019-04-25T04:41:16.321Z,73.08
2019-04-25T04:44:24.093Z,73.71
2019-04-25T04:47:31.258Z,73.71
2019-04-25T04:50:38.276Z,73.84
2019-04-25T04:53:45.370Z,73.11
2019-04-25T04:56:53.678Z,74.89
2019-04-25T05:00:00.892Z,73.19
2019-04-25T05:03:07.604Z,73.55
2019-04-25T05:06:19.300Z,72.10
2019-04-25T05:09:27.250Z,72.10
2019-04-25T05:12:35.283Z,71.46
2019-04-25T05:15:42.999Z,71.98
2019-04-25T05:18:51.265Z,70.40
2019-04-25T05:21:58.289Z,69.37
2019-04-25T05:25:06.756Z,69.23
2019-04-25T05:28:16.190Z,67.90
2019-04-25T05:31:25.624Z,66.85
2019-04-25T05:34:34.418Z,65.76
2019-04-25T05:37:43.499Z,65.18
2019-04-25T05:40:57.620Z,64.31
2019-04-25T05:44:04.758Z,63.04
2019-04-25T05:47:11.614Z,63.04
2019-04-25T05:50:18.507Z,61.30
2019-04-25T05:53:26.323Z,61.40
2019-04-25T05:56:33.953Z,61.40
2019-04-25T05:59:40.900Z,59.73
2019-04-25T06:02:47.905Z,59.67
2019-04-25T06:05:54.768Z,60.43
2019-04-25T06:09:15.361Z,60.48
2019-04-25T06:12:34.273Z,58.44
2019-04-25T06:15:43.374Z,57.12
2019-04-25T06:18:52.313Z,57.12
2019-04-25T06:21:59.241Z,56.63
2019-04-25T06:25:12.817Z,55.77
2019-04-25T06:28:23.682Z,54.35
2019-04-25T06:31:34.167Z,53.96
2019-04-25T06:34:44.205Z,54.32
2019-04-25T06:37:51.021Z,53.46
2019-04-25T06:40:58.207Z,51.05
2019-04-25T06:44:07.761Z,49.24
2019-04-25T06:47:16.247Z,49.24
2019-04-25T06:50:24.916Z,48.90
2019-04-25T06:53:34.462Z,46.79
2019-04-25T06:56:40.570Z,45.11
2019-04-25T06:59:47.585Z,41.81
2019-04-25T07:02:55.061Z,41.07
2019-04-25T07:06:03.299Z,41.07
2019-04-25T07:09:10.264Z,37.50
2019-04-25T07:12:17.737Z,35.84
2019-04-25T07:15:26.941Z,34.98
2019-04-25T07:18:37.012Z,33.24
2019-04-25T07:21:44.367Z,33.95
2019-04-25T07:24:51.640Z,31.74
2019-04-25T07:28:03.311Z,31.00
2019-04-25T07:31:15.026Z,31.65
2019-04-25T07:34:27.178Z,31.65
2019-04-25T07:37:37.188Z,29.71
2019-04-25T07:40:43.423Z,30.86
2019-04-25T07:43:50.791Z,29.90
2019-04-25T07:46:57.672Z,30.12
2019-04-25T07:50:06.709Z,28.60
2019-04-25T07:53:14.352Z,26.63
2019-04-25T07:56:21.719Z,27.62
2019-04-25T07:59:29.053Z,27.62
2019-04-25T08:02:36.281Z,29.81
2019-04-25T08:05:43.980Z,31.93
2019-04-25T08:08:51.307Z,32.45
2019-04-25T08:11:58.948Z,31.58
2019-04-25T08:15:10.388Z,31.91
2019-04-25T08:18:16.605Z,32.03
2019-04-25T08:21:24.221Z,32.43
2019-04-25T08:24:31.527Z,30.94
2019-04-25T08:27:38.912Z,32.69
2019-04-25T08:30:46.334Z,32.63
2019-04-25T08:33:53.615Z,31.21
2019-04-25T08:37:01.091Z,30.09
2019-04-25T08:40:08.298Z,30.86
2019-04-25T08:43:15.329Z,30.60
2019-04-25T08:46:23.487Z,27.37
2019-04-25T08:49:34.917Z,27.37
2019-04-25T08:52:44.323Z,27.22
2019-04-25T08:56:01.272Z,28.12
2019-04-25T08:59:09.765Z,27.41
2019-04-25T09:02:16.421Z,27.95
2019-04-25T09:05:25.388Z,28.91
2019-04-25T09:08:33.031Z,27.90
2019-04-25T09:11:41.415Z,28.11
2019-04-25T09:14:48.557Z,27.94
2019-04-25T09:17:55.417Z,27.29
2019-04-25T09:21:01.842Z,27.29
2019-04-25T09:24:08.752Z,26.82
2019-04-25T09:27:15.652Z,25.78
2019-04-25T09:30:24.083Z,26.10
2019-04-25T09:33:31.298Z,26.10
2019-04-25T09:36:38.617Z,25.70
2019-04-25T09:40:04.239Z,24.54
2019-04-25T09:43:11.299Z,24.32
2019-04-25T09:46:19.724Z,23.45
2019-04-25T09:49:28.558Z,23.80
2019-04-25T09:52:36.113Z,23.76
2019-04-25T09:55:54.249Z,23.76
2019-04-25T09:59:03.744Z,24.39
2019-04-25T10:02:11.262Z,24.39
2019-04-25T10:05:18.891Z,24.57
2019-04-25T10:08:25.760Z,24.56
2019-04-25T10:11:33.641Z,23.13
2019-04-25T10:14:54.913Z,23.04
2019-04-25T10:18:02.041Z,23.61
2019-04-25T10:21:11.488Z,23.34
2019-04-25T10:24:18.745Z,24.75
2019-04-25T10:27:25.958Z,24.86
2019-04-25T10:30:34.244Z,23.28
2019-04-25T10:33:45.302Z,22.73
2019-04-25T10:36:50.523Z,22.14
2019-04-25T10:39:57.506Z,23.86
2019-04-25T10:43:05.385Z,23.63
2019-04-25T10:46:14.168Z,23.63
2019-04-25T10:49:21.272Z,24.46
2019-04-25T10:52:28.281Z,23.21
2019-04-25T10:55:35.750Z,24.53
2019-04-25T10:58:44.392Z,23.72
2019-04-25T11:01:51.389Z,21.92
2019-04-25T11:05:06.174Z,22.71
2019-04-25T11:08:13.738Z,22.77
2019-04-25T11:11:21.526Z,22.10
2019-04-25T11:14:28.656Z,22.24
2019-04-25T11:17:35.680Z,22.24
2019-04-25T11:20:43.103Z,20.56
2019-04-25T11:23:51.295Z,19.94
2019-04-25T11:26:58.284Z,19.79
2019-04-25T11:30:10.902Z,18.79
2019-04-25T11:33:14.566Z,18.93
2019-04-25T11:36:21.478Z,18.29
2019-04-25T11:39:46.068Z,18.27
2019-04-25T11:42:54.453Z,18.27
2019-04-25T11:46:01.241Z,19.28
2019-04-25T11:49:09.421Z,18.84
2019-04-25T11:52:26.958Z,18.28
2019-04-25T11:55:25.670Z,18.28
2019-04-25T11:58:32.572Z,16.91
2019-04-25T12:01:39.739Z,18.35
2019-04-25T12:04:47.789Z,17.39
2019-04-25T12:07:55.274Z,15.45
2019-04-25T12:11:02.401Z,16.08
2019-04-25T12:14:09.911Z,14.60
2019-04-25T12:17:16.942Z,15.73
2019-04-25T12:20:23.899Z,15.19
2019-04-25T12:23:30.853Z,16.53
2019-04-25T12:26:38.239Z,16.44
2019-04-25T12:29:46.004Z,15.08
2019-04-25T12:32:55.242Z,15.04
2019-04-25T12:36:02.265Z,13.40
2019-04-25T12:39:10.248Z,13.84
2019-04-25T12:42:17.406Z,13.49
2019-04-25T12:45:38.022Z,15.67
2019-04-25T12:48:46.051Z,14.53
2019-04-25T12:51:53.565Z,14.12
2019-04-25T12:55:01.820Z,13.81
2019-04-25T12:58:09.281Z,13.81
2019-04-25T13:01:16.706Z,13.09
2019-04-25T13:04:24.795Z,13.22
2019-04-25T13:07:31.738Z,13.22
2019-04-25T13:10:38.876Z,13.34
2019-04-25T13:13:45.796Z,13.63
2019-04-25T13:16:52.630Z,13.63
2019-04-25T13:19:59.538Z,13.65
2019-04-25T13:23:07.562Z,13.44
2019-04-25T13:26:16.307Z,13.44
2019-04-25T13:29:43.336Z,12.54
2019-04-25T13:32:58.310Z,12.01
2019-04-25T13:36:06.269Z,12.56
2019-04-25T13:39:16.163Z,12.66
2019-04-25T13:42:24.705Z,11.86
2019-04-25T13:45:31.974Z,11.86
2019-04-25T13:48:39.039Z,11.95
2019-04-25T13:51:47.675Z,11.95
2019-04-25T13:54:54.631Z,13.14
2019-04-25T13:58:01.585Z,12.15
2019-04-25T14:01:15.149Z,13.23
2019-04-25T14:04:21.131Z,13.50
2019-04-25T14:07:29.729Z,13.50
2019-04-25T14:10:36.716Z,12.55
2019-04-25T14:13:43.597Z,14.75
2019-04-25T14:17:07.087Z,12.95
2019-04-25T14:20:16.047Z,12.95
2019-04-25T14:23:24.426Z,13.37
2019-04-25T14:26:31.886Z,12.97
2019-04-25T14:29:38.897Z,13.89
2019-04-25T14:32:46.200Z,13.89
2019-04-25T14:35:54.809Z,13.24
2019-04-25T14:39:02.043Z,13.23
2019-04-25T14:42:10.746Z,14.51
2019-04-25T14:45:19.028Z,12.46
2019-04-25T14:48:25.957Z,12.87
2019-04-25T14:51:35.991Z,12.63
2019-04-25T14:54:43.289Z,12.43
2019-04-25T14:57:50.250Z,13.63
2019-04-25T15:00:57.569Z,11.74
2019-04-25T15:04:04.521Z,12.89
2019-04-25T15:07:11.700Z,13.08
2019-04-25T15:10:18.787Z,13.08
2019-04-25T15:13:25.842Z,13.34
2019-04-25T15:16:33.468Z,13.22
2019-04-25T15:19:42.145Z,12.78
2019-04-25T15:22:49.098Z,12.74
2019-04-25T15:25:56.242Z,13.54
2019-04-25T15:29:03.256Z,13.54
2019-04-25T15:32:13.650Z,13.87
2019-04-25T15:35:22.245Z,14.26
2019-04-25T15:38:31.419Z,14.48
2019-04-25T15:41:56.566Z,14.56
2019-04-25T15:45:05.705Z,15.53
2019-04-25T15:48:15.650Z,15.53
2019-04-25T15:51:22.671Z,15.89
2019-04-25T15:54:29.655Z,15.76
2019-04-25T15:57:36.657Z,16.62
2019-04-25T16:00:44.268Z,16.82
2019-04-25T16:03:52.580Z,16.47
2019-04-25T16:07:00.298Z,16.82
2019-04-25T16:10:08.508Z,17.98
2019-04-25T16:13:17.470Z,17.32
2019-04-25T16:16:24.420Z,17.27
2019-04-25T16:19:31.601Z,17.20
2019-04-25T16:22:41.302Z,17.17
2019-04-25T16:25:48.570Z,17.42
2019-04-25T16:28:55.410Z,16.73
2019-04-25T16:32:03.311Z,16.73
2019-04-25T16:35:10.673Z,17.29
2019-04-25T16:38:20.741Z,17.50
2019-04-25T16:41:28.665Z,17.30
2019-04-25T16:44:36.275Z,17.31
2019-04-25T16:47:43.770Z,17.53
2019-04-25T16:50:51.575Z,17.53
2019-04-25T16:53:58.665Z,17.90
2019-04-25T16:57:07.253Z,17.69
2019-04-25T17:00:16.452Z,18.24
2019-04-25T17:03:24.665Z,18.54
2019-04-25T17:06:32.312Z,18.98
2019-04-25T17:09:39.463Z,20.14
2019-04-25T17:12:45.822Z,20.14
2019-04-25T17:16:06.492Z,19.90
2019-04-25T17:19:15.266Z,20.18
2019-04-25T17:22:22.627Z,21.28
2019-04-25T17:25:30.115Z,23.14
2019-04-25T17:28:39.928Z,23.14
2019-04-25T17:32:05.063Z,21.99
2019-04-25T17:35:29.653Z,22.81
2019-04-25T17:38:44.930Z,24.11
2019-04-25T17:41:51.748Z,25.26
2019-04-25T17:45:00.262Z,26.49
2019-04-25T17:48:07.298Z,25.19
2019-04-25T17:51:14.539Z,26.15
2019-04-25T17:54:21.506Z,27.76
2019-04-25T17:57:30.303Z,29.77
2019-04-25T18:00:39.630Z,29.77
2019-04-25T18:03:47.309Z,33.50
2019-04-25T18:06:56.081Z,30.05
2019-04-25T18:10:03.098Z,31.15
2019-04-25T18:13:11.855Z,33.24
2019-04-25T18:16:19.234Z,33.68
2019-04-25T18:19:40.523Z,35.14
2019-04-25T18:22:47.464Z,39.49
2019-04-25T18:26:12.252Z,39.10
2019-04-25T18:29:27.963Z,36.54
2019-04-25T18:32:37.073Z,37.74
2019-04-25T18:35:45.925Z,41.22
2019-04-25T18:38:54.440Z,40.50
2019-04-25T18:42:08.243Z,40.07
2019-04-25T18:45:16.525Z,39.74
2019-04-25T18:48:23.792Z,42.38
2019-04-25T18:51:31.588Z,42.62
2019-04-25T18:54:47.421Z,42.62
2019-04-25T18:57:58.718Z,44.30
2019-04-25T19:01:17.287Z,43.97
2019-04-25T19:04:42.333Z,44.38
2019-04-25T19:07:49.127Z,43.93
2019-04-25T19:10:56.325Z,46.32
2019-04-25T19:14:03.433Z,47.35
2019-04-25T19:17:11.291Z,45.50
2019-04-25T19:20:18.304Z,47.65
2019-04-25T19:23:25.282Z,47.87
2019-04-25T19:26:32.440Z,47.66
2019-04-25T19:29:41.758Z,47.74
2019-04-25T19:32:49.168Z,48.18
2019-04-25T19:36:00.592Z,52.57
2019-04-25T19:39:08.350Z,49.23
2019-04-25T19:42:21.405Z,49.23
2019-04-25T19:45:28.389Z,49.71
2019-04-25T19:48:34.523Z,50.41
2019-04-25T19:51:41.812Z,51.51
2019-04-25T19:54:49.518Z,50.33
2019-04-25T19:57:59.779Z,51.41
2019-04-25T20:01:08.213Z,51.41
2019-04-25T20:04:20.294Z,52.51
2019-04-25T20:07:46.620Z,52.50
2019-04-25T20:10:59.654Z,52.61
2019-04-25T20:14:08.506Z,53.16
2019-04-25T20:17:15.561Z,52.47
2019-04-25T20:20:24.776Z,55.08
2019-04-25T20:23:32.283Z,55.08
2019-04-25T20:26:39.361Z,54.00
2019-04-25T20:29:46.531Z,55.65
2019-04-25T20:32:55.630Z,54.83
2019-04-25T20:36:03.062Z,54.83
2019-04-25T20:39:10.334Z,55.59
2019-04-25T20:42:18.329Z,56.42
2019-04-25T20:45:25.302Z,55.24
2019-04-25T20:48:32.662Z,55.42
2019-04-25T20:51:40.570Z,53.98
2019-04-25T20:54:48.909Z,56.24
2019-04-25T20:57:57.898Z,55.03
2019-04-25T21:01:05.277Z,55.03
2019-04-25T21:04:13.579Z,57.15
2019-04-25T21:07:22.265Z,55.65
2019-04-25T21:10:29.661Z,58.27
2019-04-25T21:13:55.920Z,58.27
2019-04-25T21:17:04.791Z,55.43
2019-04-25T21:20:14.563Z,55.26
2019-04-25T21:23:21.635Z,55.58
2019-04-25T21:26:28.595Z,54.52
2019-04-25T21:29:35.588Z,54.52
2019-04-25T21:32:53.443Z,57.03
2019-04-25T21:36:01.559Z,57.03
2019-04-25T21:39:10.738Z,57.07
2019-04-25T21:42:24.256Z,57.55
2019-04-25T21:45:31.987Z,57.67
2019-04-25T21:48:42.361Z,57.67
2019-04-25T21:51:52.592Z,57.90
2019-04-25T21:54:59.749Z,56.61
2019-04-25T21:58:09.308Z,56.14
2019-04-25T22:01:18.327Z,56.37
2019-04-25T22:04:38.209Z,56.37
2019-04-25T22:07:35.728Z,57.86
2019-04-25T22:10:43.597Z,57.86
2019-04-25T22:13:50.456Z,58.26
2019-04-25T22:16:58.269Z,58.26
2019-04-25T22:20:07.292Z,57.96
2019-04-25T22:23:13.537Z,57.32
2019-04-25T22:26:20.748Z,58.19
2019-04-25T22:29:28.298Z,58.19
2019-04-25T22:32:45.533Z,61.20
2019-04-25T22:35:54.105Z,60.73
2019-04-25T22:39:11.215Z,60.79
2019-04-25T22:42:18.686Z,60.58
2019-04-25T22:45:25.499Z,60.14
2019-04-25T22:48:34.272Z,59.15
2019-04-25T22:51:41.266Z,61.50
2019-04-25T22:54:48.718Z,60.65
2019-04-25T22:57:56.251Z,61.21
2019-04-25T23:01:05.081Z,62.43
2019-04-25T23:04:11.766Z,62.13
2019-04-25T23:07:20.927Z,60.82
2019-04-25T23:10:28.254Z,62.24
2019-04-25T23:13:35.292Z,63.69
2019-04-25T23:16:42.492Z,63.31
2019-04-25T23:19:49.385Z,62.94
2019-04-25T23:22:55.562Z,62.94
2019-04-25T23:26:06.940Z,62.75
2019-04-25T23:29:15.637Z,64.22
2019-04-25T23:32:23.137Z,65.07
2019-04-25T23:35:31.020Z,65.07
2019-04-25T23:38:38.777Z,63.59
2019-04-25T23:41:46.133Z,64.40
2019-04-25T23:44:53.421Z,64.62
2019-04-25T23:48:00.291Z,65.01
2019-04-25T23:51:08.767Z,65.92
2019-04-25T23:54:17.168Z,71.06
2019-04-25T23:57:24.286Z,68.40
